createdAt,value
2023-02-01T00:01:09.231Z,89.35
2023-02-01T00:03:36.677Z,89.46
2023-02-01T00:06:04.166Z,89.62
2023-02-01T00:08:31.236Z,89.56
2023-02-01T00:11:16.323Z,89.88
2023-02-01T00:13:44.309Z,89.77
2023-02-01T00:16:17.983Z,90.12
2023-02-01T00:18:52.526Z,90.19
2023-02-01T00:21:21.997Z,90.18
2023-02-01T00:23:49.081Z,89.94
2023-02-01T00:26:37.350Z,89.78
2023-02-01T00:29:27.069Z,89.72
2023-02-01T00:31:54.164Z,89.62
2023-02-01T00:34:21.613Z,89.21
2023-02-01T00:36:48.972Z,88.69
2023-02-01T00:39:16.908Z,88.77
2023-02-01T00:41:44.820Z,88.86
2023-02-01T00:44:11.802Z,88.71
2023-02-01T00:46:38.905Z,88.60
2023-02-01T00:49:08.203Z,88.70
2023-02-01T00:51:35.736Z,88.79
2023-02-01T00:54:04.265Z,88.90
2023-02-01T00:56:32.505Z,88.87
2023-02-01T00:59:00.255Z,88.53
2023-02-01T01:01:29.120Z,88.45
2023-02-01T01:04:00.645Z,88.34
2023-02-01T01:06:34.451Z,87.68
2023-02-01T01:09:06.603Z,87.94
2023-02-01T01:11:37.800Z,88.08
2023-02-01T01:14:08.748Z,88.13
2023-02-01T01:16:36.987Z,87.66
2023-02-01T01:19:04.650Z,87.25
2023-02-01T01:21:32.335Z,87.04
2023-02-01T01:23:59.981Z,86.63
2023-02-01T01:26:30.586Z,86.19
2023-02-01T01:28:59.793Z,86.34
2023-02-01T01:31:28.088Z,86.55
2023-02-01T01:33:58.911Z,86.37
2023-02-01T01:36:27.852Z,86.24
2023-02-01T01:38:54.924Z,86.19
2023-02-01T01:41:31.816Z,86.14
2023-02-01T01:44:07.235Z,86.25
2023-02-01T01:46:38.730Z,86.24
2023-02-01T01:49:18.079Z,86.20
2023-02-01T01:51:52.232Z,85.84
2023-02-01T01:54:30.602Z,85.78
2023-02-01T01:57:04.826Z,86.08
2023-02-01T01:59:35.943Z,86.10
2023-02-01T02:02:03.169Z,86.08
2023-02-01T02:04:31.021Z,86.42
2023-02-01T02:07:09.086Z,86.38
2023-02-01T02:09:36.308Z,86.45
2023-02-01T02:12:03.640Z,86.69
2023-02-01T02:14:32.443Z,86.57
2023-02-01T02:17:41.065Z,86.68
2023-02-01T02:20:50.403Z,86.80
2023-02-01T02:23:48.543Z,86.86
2023-02-01T02:26:47.300Z,86.94
2023-02-01T02:29:43.003Z,86.88
2023-02-01T02:32:22.189Z,86.75
2023-02-01T02:35:34.238Z,86.72
2023-02-01T02:38:32.401Z,86.89
2023-02-01T02:41:09.553Z,86.70
2023-02-01T02:44:15.897Z,86.88
2023-02-01T02:47:10.153Z,86.97
2023-02-01T02:50:24.923Z,86.88
2023-02-01T02:53:34.577Z,87.14
2023-02-01T02:56:25.255Z,87.45
2023-02-01T02:59:12.737Z,87.73
2023-02-01T03:02:00.451Z,87.30
2023-02-01T03:04:27.758Z,87.23
2023-02-01T03:06:55.540Z,87.42
2023-02-01T03:09:33.169Z,87.12
2023-02-01T03:12:28.766Z,86.90
2023-02-01T03:15:06.699Z,87.05
2023-02-01T03:17:43.317Z,86.75
2023-02-01T03:20:14.994Z,86.93
2023-02-01T03:22:46.193Z,87.07
2023-02-01T03:25:22.688Z,87.03
2023-02-01T03:28:03.595Z,87.00
2023-02-01T03:30:38.126Z,86.94
2023-02-01T03:33:21.867Z,86.85
2023-02-01T03:36:34.774Z,86.67
2023-02-01T03:39:32.054Z,86.65
2023-02-01T03:42:05.969Z,86.72
2023-02-01T03:44:42.373Z,86.95
2023-02-01T03:47:21.118Z,86.96
2023-02-01T03:49:56.143Z,87.07
2023-02-01T03:52:50.118Z,87.04
2023-02-01T03:55:23.921Z,87.60
2023-02-01T03:58:10.414Z,87.47
2023-02-01T04:00:37.463Z,87.78
2023-02-01T04:03:06.831Z,87.90
2023-02-01T04:05:35.607Z,88.01
2023-02-01T04:08:06.171Z,88.35
2023-02-01T04:10:33.322Z,88.26
2023-02-01T04:13:00.257Z,88.36
2023-02-01T04:15:27.281Z,88.20
2023-02-01T04:17:54.289Z,88.26
2023-02-01T04:20:21.520Z,88.30
2023-02-01T04:22:48.642Z,88.52
2023-02-01T04:25:18.264Z,88.61
2023-02-01T04:27:47.669Z,88.93
2023-02-01T04:30:15.350Z,88.79
2023-02-01T04:32:42.576Z,88.63
2023-02-01T04:35:10.098Z,88.61
2023-02-01T04:37:37.169Z,88.68
2023-02-01T04:40:04.817Z,88.87
2023-02-01T04:42:31.788Z,89.03
2023-02-01T04:44:58.796Z,88.91
2023-02-01T04:47:25.695Z,89.03
2023-02-01T04:49:52.649Z,89.04
2023-02-01T04:52:19.529Z,89.22
2023-02-01T04:54:46.510Z,89.59
2023-02-01T04:57:14.412Z,89.52
2023-02-01T04:59:41.627Z,89.71
2023-02-01T05:02:08.575Z,89.63
2023-02-01T05:04:35.612Z,90.00
2023-02-01T05:07:02.644Z,90.36
2023-02-01T05:09:29.622Z,90.40
2023-02-01T05:12:14.853Z,90.43
2023-02-01T05:14:41.872Z,90.55
2023-02-01T05:17:08.891Z,90.26
2023-02-01T05:19:35.884Z,90.22
2023-02-01T05:22:02.816Z,90.54
2023-02-01T05:24:29.767Z,90.73
2023-02-01T05:26:56.883Z,90.91
2023-02-01T05:29:24.064Z,89.82
2023-02-01T05:31:51.353Z,89.78
2023-02-01T05:34:18.422Z,89.15
2023-02-01T05:36:45.459Z,89.28
2023-02-01T05:39:12.645Z,89.23
2023-02-01T05:41:39.679Z,89.59
2023-02-01T05:44:09.983Z,88.57
2023-02-01T05:46:37.321Z,88.21
2023-02-01T05:49:05.775Z,87.91
2023-02-01T05:51:32.782Z,88.12
2023-02-01T05:53:59.700Z,88.79
2023-02-01T05:56:27.613Z,87.80
2023-02-01T05:58:54.557Z,86.75
2023-02-01T06:01:21.546Z,86.50
2023-02-01T06:03:48.616Z,86.09
2023-02-01T06:06:15.826Z,85.86
2023-02-01T06:08:42.836Z,84.84
2023-02-01T06:11:10.957Z,85.05
2023-02-01T06:13:40.420Z,85.11
2023-02-01T06:16:08.590Z,84.40
2023-02-01T06:18:36.649Z,84.94
2023-02-01T06:21:04.020Z,84.47
2023-02-01T06:23:32.111Z,84.25
2023-02-01T06:26:01.709Z,83.97
2023-02-01T06:28:30.426Z,84.19
2023-02-01T06:30:59.084Z,84.07
2023-02-01T06:33:26.713Z,83.62
2023-02-01T06:36:02.956Z,83.89
2023-02-01T06:38:31.040Z,83.85
2023-02-01T06:40:59.075Z,83.60
2023-02-01T06:43:28.304Z,83.76
2023-02-01T06:46:02.494Z,83.84
2023-02-01T06:48:29.928Z,84.09
2023-02-01T06:50:57.500Z,84.68
2023-02-01T06:53:24.855Z,84.99
2023-02-01T06:56:01.152Z,85.19
2023-02-01T06:58:33.986Z,85.22
2023-02-01T07:01:09.399Z,85.27
2023-02-01T07:03:37.268Z,85.31
2023-02-01T07:06:05.680Z,85.25
2023-02-01T07:08:35.547Z,85.19
2023-02-01T07:11:15.531Z,85.25
2023-02-01T07:13:42.581Z,85.02
2023-02-01T07:16:16.735Z,85.39
2023-02-01T07:18:44.003Z,85.21
2023-02-01T07:21:11.499Z,84.96
2023-02-01T07:23:39.298Z,84.83
2023-02-01T07:26:08.728Z,84.48
2023-02-01T07:28:37.282Z,84.42
2023-02-01T07:31:19.242Z,84.29
2023-02-01T07:33:46.628Z,84.08
2023-02-01T07:36:17.499Z,84.16
2023-02-01T07:38:44.937Z,84.22
2023-02-01T07:41:12.205Z,84.09
2023-02-01T07:43:39.343Z,84.08
2023-02-01T07:46:07.226Z,84.17
2023-02-01T07:48:35.130Z,84.16
2023-02-01T07:51:10.783Z,83.62
2023-02-01T07:53:38.402Z,83.60
2023-02-01T07:56:16.184Z,83.72
2023-02-01T07:58:44.037Z,83.63
2023-02-01T08:01:26.849Z,83.34
2023-02-01T08:04:01.856Z,83.35
2023-02-01T08:06:32.937Z,83.06
2023-02-01T08:08:59.901Z,82.81
2023-02-01T08:11:27.658Z,82.90
2023-02-01T08:13:55.345Z,82.60
2023-02-01T08:16:24.809Z,82.91
2023-02-01T08:18:53.268Z,82.65
2023-02-01T08:21:37.787Z,82.65
2023-02-01T08:24:09.198Z,82.69
2023-02-01T08:26:36.779Z,82.83
2023-02-01T08:29:07.818Z,82.67
2023-02-01T08:31:35.146Z,82.27
2023-02-01T08:34:06.891Z,82.38
2023-02-01T08:36:33.962Z,82.50
2023-02-01T08:39:02.096Z,82.15
2023-02-01T08:41:31.407Z,81.90
2023-02-01T08:43:59.070Z,81.95
2023-02-01T08:46:26.695Z,81.46
2023-02-01T08:48:53.814Z,81.29
2023-02-01T08:51:23.601Z,81.85
2023-02-01T08:53:51.969Z,81.80
2023-02-01T08:56:20.490Z,81.80
2023-02-01T08:58:47.719Z,81.93
2023-02-01T09:01:17.943Z,82.02
2023-02-01T09:03:45.520Z,82.17
2023-02-01T09:06:15.489Z,82.00
2023-02-01T09:08:42.793Z,82.08
2023-02-01T09:11:16.361Z,81.37
2023-02-01T09:13:43.755Z,81.64
2023-02-01T09:16:10.971Z,81.63
2023-02-01T09:18:46.034Z,80.92
2023-02-01T09:21:23.533Z,81.05
2023-02-01T09:23:52.679Z,80.00
2023-02-01T09:26:22.880Z,79.82
2023-02-01T09:28:53.391Z,79.78
2023-02-01T09:31:20.876Z,79.84
2023-02-01T09:33:48.042Z,79.67
2023-02-01T09:36:15.052Z,79.11
2023-02-01T09:38:52.459Z,78.81
2023-02-01T09:42:11.789Z,78.63
2023-02-01T09:45:16.512Z,78.94
2023-02-01T09:47:54.408Z,77.67
2023-02-01T09:50:38.390Z,77.68
2023-02-01T09:53:37.321Z,77.71
2023-02-01T09:56:28.667Z,77.63
2023-02-01T09:59:24.639Z,77.27
2023-02-01T10:01:51.975Z,76.67
2023-02-01T10:04:19.597Z,76.70
2023-02-01T10:07:17.312Z,75.77
2023-02-01T10:10:22.103Z,75.30
2023-02-01T10:13:23.238Z,75.07
2023-02-01T10:16:11.072Z,75.10
2023-02-01T10:18:57.879Z,74.49
2023-02-01T10:21:45.739Z,73.77
2023-02-01T10:24:30.330Z,73.83
2023-02-01T10:27:08.835Z,73.83
2023-02-01T10:29:41.958Z,74.55
2023-02-01T10:32:20.879Z,73.48
2023-02-01T10:35:06.081Z,74.00
2023-02-01T10:37:35.539Z,73.98
2023-02-01T10:40:24.791Z,74.15
2023-02-01T10:43:02.872Z,74.93
2023-02-01T10:45:34.086Z,75.63
2023-02-01T10:48:05.129Z,74.78
2023-02-01T10:50:43.105Z,74.82
2023-02-01T10:53:22.876Z,74.85
2023-02-01T10:55:55.403Z,74.73
2023-02-01T10:58:32.773Z,74.10
2023-02-01T11:01:07.788Z,74.45
2023-02-01T11:04:03.077Z,74.40
2023-02-01T11:06:34.826Z,75.15
2023-02-01T11:09:13.939Z,75.22
2023-02-01T11:11:49.712Z,74.98
2023-02-01T11:14:38.071Z,75.38
2023-02-01T11:17:20.324Z,75.72
2023-02-01T11:20:26.172Z,75.90
2023-02-01T11:22:57.755Z,75.89
2023-02-01T11:25:26.876Z,75.13
2023-02-01T11:27:57.656Z,74.29
2023-02-01T11:30:44.204Z,74.31
2023-02-01T11:33:19.652Z,74.65
2023-02-01T11:35:49.933Z,74.49
2023-02-01T11:38:37.401Z,74.04
2023-02-01T11:41:28.659Z,74.24
2023-02-01T11:44:01.661Z,74.50
2023-02-01T11:46:35.265Z,74.81
2023-02-01T11:49:21.455Z,74.51
2023-02-01T11:52:11.654Z,74.43
2023-02-01T11:55:16.003Z,73.83
2023-02-01T11:58:07.684Z,74.15
2023-02-01T12:01:07.261Z,74.53
2023-02-01T12:04:05.033Z,73.34
2023-02-01T12:06:54.811Z,73.00
2023-02-01T12:10:05.358Z,73.94
2023-02-01T12:12:45.196Z,74.87
2023-02-01T12:16:06.212Z,76.29
2023-02-01T12:19:03.886Z,77.13
2023-02-01T12:22:01.081Z,77.30
2023-02-01T12:24:59.066Z,78.34
2023-02-01T12:28:06.429Z,78.76
2023-02-01T12:31:25.081Z,78.29
2023-02-01T12:34:21.929Z,78.49
2023-02-01T12:37:34.866Z,78.42
2023-02-01T12:40:37.521Z,78.45
2023-02-01T12:43:29.808Z,77.47
2023-02-01T12:46:07.197Z,77.71
2023-02-01T12:48:44.034Z,76.56
2023-02-01T12:51:37.677Z,76.29
2023-02-01T12:55:12.545Z,76.34
2023-02-01T12:57:50.404Z,76.37
2023-02-01T13:00:32.696Z,76.09
2023-02-01T13:03:50.771Z,75.66
2023-02-01T13:06:25.341Z,75.81
2023-02-01T13:09:10.735Z,75.81
2023-02-01T13:11:46.511Z,75.81
2023-02-01T13:14:39.893Z,75.49
2023-02-01T13:17:16.494Z,74.62
2023-02-01T13:19:53.512Z,74.22
2023-02-01T13:22:34.054Z,74.02
2023-02-01T13:25:14.268Z,73.59
2023-02-01T13:27:41.611Z,73.61
2023-02-01T13:30:31.380Z,73.65
2023-02-01T13:33:56.585Z,73.52
2023-02-01T13:36:52.206Z,73.24
2023-02-01T13:39:47.273Z,73.32
2023-02-01T13:42:23.709Z,72.79
2023-02-01T13:45:02.141Z,73.11
2023-02-01T13:47:35.081Z,73.01
2023-02-01T13:50:25.619Z,73.14
2023-02-01T13:53:17.891Z,73.46
2023-02-01T13:55:48.531Z,74.11
2023-02-01T13:58:32.035Z,73.54
2023-02-01T14:01:23.975Z,73.62
2023-02-01T14:03:55.219Z,73.99
2023-02-01T14:06:28.670Z,74.06
2023-02-01T14:09:12.563Z,73.95
2023-02-01T14:11:58.737Z,74.47
2023-02-01T14:14:25.885Z,74.39
2023-02-01T14:16:55.913Z,74.54
2023-02-01T14:19:32.695Z,74.60
2023-02-01T14:22:02.505Z,74.39
2023-02-01T14:24:37.413Z,73.78
2023-02-01T14:27:24.083Z,74.06
2023-02-01T14:30:00.511Z,73.98
2023-02-01T14:32:35.646Z,74.63
2023-02-01T14:35:08.814Z,74.81
2023-02-01T14:37:40.082Z,74.86
2023-02-01T14:40:24.337Z,74.88
2023-02-01T14:42:54.050Z,74.91
2023-02-01T14:45:24.675Z,74.53
2023-02-01T14:48:15.929Z,74.68
2023-02-01T14:50:49.354Z,74.77
2023-02-01T14:53:34.264Z,74.63
2023-02-01T14:56:07.641Z,74.81
2023-02-01T14:58:54.834Z,74.89
2023-02-01T15:01:32.068Z,75.01
2023-02-01T15:04:13.186Z,75.22
2023-02-01T15:06:53.289Z,75.13
2023-02-01T15:09:30.105Z,75.46
2023-02-01T15:12:07.010Z,75.51
2023-02-01T15:14:39.296Z,75.46
2023-02-01T15:17:38.511Z,75.41
2023-02-01T15:20:17.123Z,75.41
2023-02-01T15:23:05.797Z,75.65
2023-02-01T15:25:37.800Z,75.73
2023-02-01T15:28:07.033Z,76.19
2023-02-01T15:30:36.360Z,76.25
2023-02-01T15:33:19.083Z,77.04
2023-02-01T15:35:48.984Z,77.68
2023-02-01T15:38:27.445Z,78.87
2023-02-01T15:41:14.242Z,79.06
2023-02-01T15:43:57.170Z,79.38
2023-02-01T15:46:34.749Z,79.36
2023-02-01T15:49:01.942Z,78.94
2023-02-01T15:51:33.635Z,79.42
2023-02-01T15:54:09.034Z,79.42
2023-02-01T15:56:42.361Z,79.25
2023-02-01T15:59:20.075Z,78.90
2023-02-01T16:01:48.565Z,79.22
2023-02-01T16:04:25.167Z,79.25
2023-02-01T16:06:54.303Z,78.88
2023-02-01T16:09:40.235Z,78.98
2023-02-01T16:12:39.093Z,78.18
2023-02-01T16:15:07.305Z,78.38
2023-02-01T16:17:34.283Z,78.29
2023-02-01T16:20:01.253Z,78.23
2023-02-01T16:22:28.260Z,78.59
2023-02-01T16:24:55.480Z,78.76
2023-02-01T16:27:23.243Z,78.64
2023-02-01T16:29:50.940Z,78.70
2023-02-01T16:32:22.427Z,78.89
2023-02-01T16:34:49.905Z,78.52
2023-02-01T16:37:22.762Z,78.14
2023-02-01T16:39:50.176Z,78.46
2023-02-01T16:42:17.996Z,78.47
2023-02-01T16:44:45.043Z,78.07
2023-02-01T16:47:23.620Z,78.01
2023-02-01T16:49:51.230Z,78.30
2023-02-01T16:52:25.152Z,78.21
2023-02-01T16:54:52.401Z,78.30
2023-02-01T16:57:24.422Z,78.10
2023-02-01T16:59:52.139Z,77.41
2023-02-01T17:02:20.982Z,77.89
2023-02-01T17:04:49.622Z,77.70
2023-02-01T17:07:19.708Z,77.48
2023-02-01T17:09:48.337Z,77.35
2023-02-01T17:12:27.140Z,77.16
2023-02-01T17:14:54.350Z,77.58
2023-02-01T17:17:32.765Z,77.40
2023-02-01T17:20:06.923Z,77.53
2023-02-01T17:22:34.091Z,77.51
2023-02-01T17:25:01.051Z,77.63
2023-02-01T17:27:30.276Z,77.64
2023-02-01T17:29:57.355Z,77.45
2023-02-01T17:32:26.565Z,77.95
2023-02-01T17:34:53.627Z,78.00
2023-02-01T17:37:31.972Z,78.14
2023-02-01T17:39:59.632Z,78.41
2023-02-01T17:42:30.051Z,77.96
2023-02-01T17:45:02.756Z,77.87
2023-02-01T17:47:29.763Z,77.68
2023-02-01T17:49:57.289Z,77.50
2023-02-01T17:52:26.216Z,78.13
2023-02-01T17:54:54.187Z,77.96
2023-02-01T17:57:21.904Z,77.95
2023-02-01T17:59:49.205Z,78.25
2023-02-01T18:02:25.164Z,78.11
2023-02-01T18:04:52.668Z,78.14
2023-02-01T18:07:19.731Z,78.20
2023-02-01T18:09:46.773Z,78.16
2023-02-01T18:12:26.770Z,78.29
2023-02-01T18:14:53.727Z,78.04
2023-02-01T18:17:20.903Z,78.10
2023-02-01T18:19:47.913Z,78.38
2023-02-01T18:22:23.069Z,77.77
2023-02-01T18:24:50.006Z,77.95
2023-02-01T18:27:16.981Z,78.12
2023-02-01T18:29:43.943Z,78.05
2023-02-01T18:32:11.012Z,78.46
2023-02-01T18:34:38.087Z,78.42
2023-02-01T18:37:05.011Z,78.57
2023-02-01T18:39:32.143Z,78.36
2023-02-01T18:41:59.415Z,78.50
2023-02-01T18:44:26.441Z,78.55
2023-02-01T18:46:53.400Z,78.61
2023-02-01T18:49:20.382Z,79.08
2023-02-01T18:51:47.446Z,78.86
2023-02-01T18:54:14.581Z,78.58
2023-02-01T18:56:42.897Z,78.76
2023-02-01T18:59:11.766Z,78.80
2023-02-01T19:01:38.936Z,78.92
2023-02-01T19:04:15.770Z,78.30
2023-02-01T19:06:44.535Z,78.87
2023-02-01T19:09:11.483Z,78.92
2023-02-01T19:11:38.397Z,78.70
2023-02-01T19:14:05.475Z,78.71
2023-02-01T19:16:33.931Z,78.70
2023-02-01T19:19:00.930Z,78.52
2023-02-01T19:21:27.898Z,78.80
2023-02-01T19:23:54.898Z,78.62
2023-02-01T19:26:22.431Z,78.68
2023-02-01T19:28:49.474Z,78.57
2023-02-01T19:31:17.675Z,78.54
2023-02-01T19:33:44.932Z,78.64
2023-02-01T19:36:11.943Z,78.68
2023-02-01T19:38:40.702Z,78.94
2023-02-01T19:41:07.720Z,78.71
2023-02-01T19:43:36.672Z,78.87
2023-02-01T19:46:03.805Z,79.02
2023-02-01T19:48:31.754Z,79.10
2023-02-01T19:50:59.413Z,79.13
2023-02-01T19:53:27.997Z,79.41
2023-02-01T19:55:57.300Z,79.52
2023-02-01T19:58:26.138Z,79.63
2023-02-01T20:00:57.932Z,79.66
2023-02-01T20:03:25.745Z,79.88
2023-02-01T20:05:55.146Z,80.00
2023-02-01T20:08:25.589Z,80.17
2023-02-01T20:10:53.045Z,80.65
2023-02-01T20:13:21.392Z,80.49
2023-02-01T20:15:48.352Z,80.69
2023-02-01T20:18:15.307Z,80.54
2023-02-01T20:20:42.676Z,80.38
2023-02-01T20:23:09.910Z,80.49
2023-02-01T20:25:38.828Z,80.48
2023-02-01T20:28:05.821Z,80.44
2023-02-01T20:30:33.370Z,80.36
2023-02-01T20:33:00.392Z,80.39
2023-02-01T20:35:28.648Z,80.29
2023-02-01T20:37:57.135Z,79.99
2023-02-01T20:40:25.133Z,80.27
2023-02-01T20:42:52.121Z,79.91
2023-02-01T20:45:19.022Z,80.07
2023-02-01T20:47:52.832Z,79.99
2023-02-01T20:50:20.038Z,79.91
2023-02-01T20:52:47.287Z,79.95
2023-02-01T20:55:14.326Z,79.80
2023-02-01T20:57:42.078Z,80.11
2023-02-01T21:00:10.308Z,80.06
2023-02-01T21:02:37.595Z,80.10
2023-02-01T21:05:05.031Z,80.15
2023-02-01T21:07:31.994Z,79.91
2023-02-01T21:09:58.926Z,80.05
2023-02-01T21:12:25.907Z,80.03
2023-02-01T21:14:55.220Z,80.10
2023-02-01T21:17:23.164Z,80.57
2023-02-01T21:19:50.140Z,80.25
2023-02-01T21:22:17.097Z,79.98
2023-02-01T21:24:44.351Z,80.07
2023-02-01T21:27:12.095Z,80.28
2023-02-01T21:29:39.370Z,80.41
2023-02-01T21:32:08.510Z,80.34
2023-02-01T21:34:36.233Z,80.19
2023-02-01T21:37:03.721Z,80.62
2023-02-01T21:39:30.795Z,80.53
2023-02-01T21:45:09.573Z,80.30
2023-02-01T21:47:36.604Z,80.27
2023-02-01T21:50:14.753Z,80.49
2023-02-01T21:52:41.865Z,80.32
2023-02-01T21:55:09.770Z,80.32
2023-02-01T21:57:37.227Z,80.75
2023-02-01T22:00:12.911Z,80.83
2023-02-01T22:02:40.412Z,80.95
2023-02-01T22:05:07.842Z,81.00
2023-02-01T22:07:36.160Z,81.12
2023-02-01T22:10:04.401Z,81.31
2023-02-01T22:12:31.356Z,81.48
2023-02-01T22:14:58.331Z,81.24
2023-02-01T22:17:25.286Z,81.09
2023-02-01T22:19:52.311Z,81.33
2023-02-01T22:22:19.248Z,81.46
2023-02-01T22:24:46.242Z,81.67
2023-02-01T22:27:14.684Z,81.77
2023-02-01T22:29:43.490Z,81.63
2023-02-01T22:32:13.241Z,81.70
2023-02-01T22:34:40.850Z,82.02
2023-02-01T22:37:07.926Z,82.06
2023-02-01T22:39:35.080Z,82.01
2023-02-01T22:42:01.951Z,81.94
2023-02-01T22:44:28.875Z,82.30
2023-02-01T22:46:55.831Z,82.22
2023-02-01T22:49:22.974Z,82.30
2023-02-01T22:51:51.942Z,82.40
2023-02-01T22:54:21.498Z,82.55
2023-02-01T22:56:49.517Z,82.54
2023-02-01T22:59:17.228Z,82.68
2023-02-01T23:01:44.970Z,82.60
2023-02-01T23:04:14.959Z,82.80
2023-02-01T23:06:42.512Z,82.82
2023-02-01T23:09:19.839Z,82.90
2023-02-01T23:11:47.384Z,83.16
2023-02-01T23:14:16.407Z,84.46
2023-02-01T23:16:49.572Z,85.06
2023-02-01T23:19:18.500Z,85.76
2023-02-01T23:21:45.617Z,85.96
2023-02-01T23:24:13.072Z,86.30
2023-02-01T23:26:42.403Z,86.21
2023-02-01T23:29:17.794Z,86.74
2023-02-01T23:31:45.071Z,87.06
2023-02-01T23:34:12.359Z,88.27
2023-02-01T23:36:39.339Z,88.49
2023-02-01T23:39:06.656Z,89.44
2023-02-01T23:41:33.678Z,89.81
2023-02-01T23:44:01.133Z,90.35
2023-02-01T23:46:38.716Z,91.17
2023-02-01T23:49:10.182Z,91.37
2023-02-01T23:51:37.366Z,92.05
2023-02-01T23:54:05.994Z,92.83
2023-02-01T23:56:38.584Z,93.15
2023-02-01T23:59:16.935Z,93.16
